Meteorología y climatología de Navarra
Datos de la estación - Meteo Navarra

Estación de Urbasa GN

Altitud 886 m.


Datos desde el 30/06/2020 hasta el 01/07/2020 en horario solar
Los datos son PROVISIONALES

Anterior Página 1 de 1 Siguiente Descargar: Formato para Excel 2000 o superior   Formato csv   Formato para OpenOffice Calc
Fecha Temperatura Humedad relativa Radiación global Insolación Precipitación Vel. viento 10 m Vel. viento 10 m Dir. viento 10 m
ºC % W/m² s l/m² m/s km/h º
30/06/2020 0:00 11.9 96 0.0 0 0.0 1.2 4.3 329
30/06/2020 0:10 11.8 96 0.0 0 0.0 1.0 3.6 325
30/06/2020 0:20 11.8 96 0.0 0 0.0 0.8 2.7 299
30/06/2020 0:30 11.8 96 0.0 0 0.0 0.3 1.0 213
30/06/2020 0:40 11.7 96 0.0 0 0.0 0.4 1.4 232
30/06/2020 0:50 11.6 96 0.0 0 0.0 0.7 2.4 302
30/06/2020 1:00 11.6 96 0.0 0 0.0 0.4 1.4 11
30/06/2020 1:10 11.6 96 0.0 0 0.0 0.7 2.5 76
30/06/2020 1:20 11.5 96 0.0 0 0.0 0.5 1.7 94
30/06/2020 1:30 11.4 96 0.0 0 0.0 0.2 0.5 214
30/06/2020 1:40 11.7 97 0.0 0 0.0 0.3 1.2 197
30/06/2020 1:50 11.6 97 0.0 0 0.0 0.5 1.7 231
30/06/2020 2:00 11.6 97 0.0 0 0.0 0.1 0.4 258
30/06/2020 2:10 11.5 97 0.0 0 0.0 0.5 1.8 221
30/06/2020 2:20 11.4 97 0.0 0 0.0 0.4 1.5 204
30/06/2020 2:30 11.0 97 0.0 0 0.0 0.3 1.0 230
30/06/2020 2:40 10.8 97 0.0 0 0.0 0.5 1.9 212
30/06/2020 2:50 10.7 97 0.0 0 0.0 0.2 0.8 137
30/06/2020 3:00 10.7 97 0.0 0 0.0 0.0 0.1 55
30/06/2020 3:10 10.7 98 0.0 0 0.0 0.2 0.9 191
30/06/2020 3:20 10.4 98 0.0 0 0.0 0.1 0.3 272
30/06/2020 3:30 10.3 98 0.0 0 0.0 0.5 1.9 55
30/06/2020 3:40 10.9 98 0.0 0 0.0 1.2 4.3 25
30/06/2020 3:50 10.9 98 0.0 0 0.0 1.0 3.6 3
30/06/2020 4:00 10.0 97 0.0 0 0.0 0.6 2.3 73
30/06/2020 4:10 9.5 98 0.0 0 0.0 0.3 1.0 94
30/06/2020 4:20 9.2 98 0.0 0 0.0 0.3 1.2 46
30/06/2020 4:30 9.0 97 0.0 0 0.0 0.2 0.6 15
30/06/2020 4:40 8.8 98 0.0 0 0.0 0.2 0.8 203
30/06/2020 4:50 8.3 97 0.0 0 0.0 0.0 0.1 104
30/06/2020 5:00 8.5 98 12.7 94 0.0 0.2 0.6 28
30/06/2020 5:10 8.4 98 52.5 600 0.0 0.6 2.1 69
30/06/2020 5:20 8.5 98 82.0 600 0.0 0.5 1.7 63
30/06/2020 5:30 8.9 98 117.3 600 0.0 0.5 1.8 81
30/06/2020 5:40 9.4 98 148.0 600 0.0 0.5 1.9 90
30/06/2020 5:50 10.0 98 181.0 600 0.0 0.4 1.3 85
30/06/2020 6:00 11.0 94 213.3 600 0.0 0.5 1.8 66
30/06/2020 6:10 11.8 88 245.6 600 0.0 0.9 3.1 85
30/06/2020 6:20 12.5 87 273.2 600 0.0 0.3 1.2 97
30/06/2020 6:30 13.1 84 294.8 600 0.0 0.8 2.9 100
30/06/2020 6:40 13.2 86 314.8 600 0.0 0.6 2.2 129
30/06/2020 6:50 14.4 82 336.2 600 0.0 0.4 1.4 93
30/06/2020 7:00 14.6 80 362.4 600 0.0 0.7 2.5 91
30/06/2020 7:10 14.8 81 391.4 600 0.0 0.7 2.6 84
30/06/2020 7:20 15.6 77 420.4 600 0.0 0.4 1.5 78
30/06/2020 7:30 16.2 73 452.4 600 0.0 0.4 1.4 77
30/06/2020 7:40 16.4 71 482.3 600 0.0 0.2 0.8 114
30/06/2020 7:50 17.2 73 510.8 600 0.0 0.4 1.5 109
30/06/2020 8:00 17.5 71 541.6 600 0.0 0.4 1.3 67
30/06/2020 8:10 17.7 70 571.8 600 0.0 0.6 2.2 30
30/06/2020 8:20 18.2 66 601.8 600 0.0 0.7 2.5 87
30/06/2020 8:30 19.1 56 630.5 600 0.0 0.6 2.1 83
30/06/2020 8:40 19.6 52 657.9 600 0.0 0.8 3.0 171
30/06/2020 8:50 19.6 57 685.6 600 0.0 1.1 4.1 169
30/06/2020 9:00 19.9 63 713.3 600 0.0 1.7 6.1 163
30/06/2020 9:10 20.1 69 740.2 600 0.0 1.6 5.8 145
30/06/2020 9:20 20.1 75 765.0 600 0.0 2.7 9.7 167
30/06/2020 9:30 20.2 76 774.2 586 0.0 2.3 8.3 150
30/06/2020 9:40 20.1 76 804.0 600 0.0 2.5 8.8 166
30/06/2020 9:50 20.3 76 830.0 600 0.0 1.8 6.6 150
30/06/2020 10:00 20.9 75 846.0 600 0.0 2.1 7.6 172
30/06/2020 10:10 21.0 74 873.0 600 0.0 1.9 6.8 125
30/06/2020 10:20 21.2 74 879.0 600 0.0 2.3 8.1 129
30/06/2020 10:30 21.4 72 896.0 600 0.0 2.0 7.0 178
30/06/2020 10:40 21.8 71 910.0 600 0.0 1.3 4.8 161
30/06/2020 10:50 21.7 67 925.0 600 0.0 2.3 8.2 173
30/06/2020 11:00 22.0 68 939.0 600 0.0 1.3 4.8 143
30/06/2020 11:10 22.3 66 946.0 600 0.0 1.6 5.9 201
30/06/2020 11:20 22.7 65 957.0 600 0.0 1.2 4.2 162
30/06/2020 11:30 23.0 62 966.0 600 0.0 1.4 5.2 150
30/06/2020 11:40 23.0 61 973.0 600 0.0 1.9 6.9 165
30/06/2020 11:50 23.0 59 976.0 600 0.0 1.1 3.9 132
30/06/2020 12:00 23.5 58 978.0 600 0.0 1.8 6.4 151
30/06/2020 12:10 23.7 55 983.0 600 0.0 1.3 4.7 170
30/06/2020 12:20 23.8 53 982.0 600 0.0 1.4 5.0 143
30/06/2020 12:30 24.0 55 979.0 600 0.0 1.1 4.1 177
30/06/2020 12:40 24.4 55 975.0 600 0.0 1.2 4.2 146
30/06/2020 12:50 24.7 51 968.0 600 0.0 0.9 3.1 116
30/06/2020 13:00 24.4 53 963.0 600 0.0 1.3 4.6 127
30/06/2020 13:10 24.9 53 957.0 600 0.0 0.8 3.0 98
30/06/2020 13:20 25.0 52 944.0 600 0.0 0.9 3.2 95
30/06/2020 13:30 25.2 52 932.0 600 0.0 1.4 5.1 150
30/06/2020 13:40 25.4 52 916.0 600 0.0 1.0 3.4 0
30/06/2020 13:50 25.2 59 904.0 600 0.0 1.6 5.7 314
30/06/2020 14:00 25.0 61 892.0 600 0.0 1.5 5.3 331
30/06/2020 14:10 24.8 62 872.0 600 0.0 1.9 6.9 290
30/06/2020 14:20 24.8 62 854.0 600 0.0 2.0 7.3 302
30/06/2020 14:30 24.7 63 834.0 600 0.0 1.9 6.9 306
30/06/2020 14:40 24.9 63 816.0 600 0.0 1.8 6.3 304
30/06/2020 14:50 24.7 63 795.2 600 0.0 2.2 7.9 293
30/06/2020 15:00 24.6 63 775.6 600 0.0 1.7 6.3 317
30/06/2020 15:10 25.0 63 755.0 600 0.0 1.5 5.4 327
30/06/2020 15:20 24.8 63 729.6 600 0.0 2.0 7.1 340
30/06/2020 15:30 24.7 64 701.1 600 0.0 2.3 8.4 326
30/06/2020 15:40 24.8 65 676.7 600 0.0 1.6 5.9 321
30/06/2020 15:50 24.9 64 655.7 600 0.0 1.8 6.3 326
30/06/2020 16:00 24.9 65 618.7 600 0.0 1.5 5.4 318
30/06/2020 16:10 24.6 65 593.9 600 0.0 2.2 7.7 319
30/06/2020 16:20 24.5 66 572.5 600 0.0 1.5 5.3 320
30/06/2020 16:30 24.6 66 466.2 480 0.0 1.7 5.9 314
30/06/2020 16:40 24.0 67 517.1 600 0.0 2.1 7.6 328
30/06/2020 16:50 24.1 68 482.2 600 0.0 1.6 5.7 322
30/06/2020 17:00 23.9 68 487.2 600 0.0 1.9 6.9 321
30/06/2020 17:10 23.9 68 358.7 382 0.0 1.6 5.8 330
30/06/2020 17:20 23.0 71 220.0 152 0.0 1.4 5.2 337
30/06/2020 17:30 22.4 73 153.9 10 0.0 1.3 4.6 330
30/06/2020 17:40 22.1 75 112.8 14 0.0 1.3 4.8 357
30/06/2020 17:50 22.0 76 323.4 504 0.0 1.5 5.5 343
30/06/2020 18:00 23.0 72 325.1 600 0.0 0.8 3.0 338
30/06/2020 18:10 22.8 73 267.4 600 0.0 1.7 6.2 334
30/06/2020 18:20 22.2 74 211.5 600 0.0 1.9 6.8 315
30/06/2020 18:30 22.1 75 176.8 498 0.0 1.4 5.0 332
30/06/2020 18:40 21.5 77 56.9 0 0.0 1.6 5.6 315
30/06/2020 18:50 21.2 79 46.5 0 0.0 0.9 3.1 262
30/06/2020 19:00 21.2 80 40.1 0 0.0 0.4 1.3 313
30/06/2020 19:10 21.0 80 46.5 0 0.0 0.4 1.4 82
30/06/2020 19:20 20.9 81 51.9 422 0.0 0.2 0.6 154
30/06/2020 19:30 20.6 83 48.1 600 0.0 0.8 2.7 353
30/06/2020 19:40 20.2 85 25.1 140 0.0 1.0 3.5 11
30/06/2020 19:50 20.1 86 6.7 0 0.0 0.7 2.4 299
30/06/2020 20:00 19.7 86 0.0 0 0.0 1.1 4.1 329
30/06/2020 20:10 19.3 85 0.0 0 0.0 1.7 6.0 327
30/06/2020 20:20 19.1 86 0.0 0 0.0 1.5 5.2 331
30/06/2020 20:30 18.9 87 0.0 0 0.0 1.7 6.1 330
30/06/2020 20:40 18.7 88 0.0 0 0.0 1.0 3.6 346
30/06/2020 20:50 18.5 88 0.0 0 0.0 1.0 3.7 319
30/06/2020 21:00 18.3 88 0.0 0 0.0 0.3 1.2 158
30/06/2020 21:10 17.9 90 0.0 0 0.0 0.0 0.1 352
30/06/2020 21:20 17.3 92 0.0 0 0.0 0.3 1.2 176
30/06/2020 21:30 16.9 93 0.0 0 0.0 0.2 0.8 25
30/06/2020 21:40 16.7 94 0.0 0 0.0 0.3 0.9 354
30/06/2020 21:50 16.3 94 0.0 0 0.0 0.4 1.4 275
30/06/2020 22:00 15.9 95 0.0 0 0.0 0.3 1.0 80
30/06/2020 22:10 15.9 96 0.0 0 0.0 0.4 1.4 304
30/06/2020 22:20 15.6 95 0.0 0 0.0 0.1 0.5 299
30/06/2020 22:30 15.4 95 0.0 0 0.0 0.1 0.3 10
30/06/2020 22:40 15.0 95 0.0 0 0.0 0.0 0.1 126
30/06/2020 22:50 14.8 96 0.0 0 0.0 0.3 1.1 310
30/06/2020 23:00 14.6 96 0.0 0 0.0 0.4 1.4 87
30/06/2020 23:10 14.5 96 0.0 0 0.0 0.6 2.2 281
30/06/2020 23:20 15.7 97 0.0 0 0.0 1.6 5.7 307
30/06/2020 23:30 16.3 97 0.0 0 0.0 1.9 6.8 332
30/06/2020 23:40 16.6 96 0.0 0 0.0 1.2 4.4 326
30/06/2020 23:50 16.1 94 0.0 0 0.0 1.0 3.6 264
Anterior Página 1 de 1 Siguiente

NOTA: Tipo de datos según el color:
   - Valores diarios o 10 minutos correctos
   - Valores diarios calculados a partir de un número de datos 10 minutos menor que 144 y mayor que 120, o de un número de datos semihorarios menor que 48 y mayor que 40 (caso de las estaciones de INTIA y del Ministerio)
   - Valores diez minutos estimados


Contacto        Enlaces        Aviso legal